Portada
METAR-TAF:

METAR-TAF

Aeropuertos :

Aeropuerto de Leipzig-Altenburg

Altenburgo, Alemania

latitud: 50-58N, longitud: 012-30E, altitud: 195 m

Observación

El informe se hizo hace 23 minutos, a las 06:50 UTC
Viento 4 kt del sur-suroeste, variando entre sur-sureste y oeste-suroeste
Temperatura 13°C
Humedad 88%
Presión 1007 hPa
Visibilidad 10 km o más

METAR: EDAC 070650Z AUTO 21004KT 150V250 9999 // FEW010/// BKN064/// OVC074/// 13/11 Q1007

Hora: 09:13 (07:13 UTC)

Pronóstico

El informe se hizo hace 14 horas y 13 minutos, a las 17:00 UTC
Pronóstico válido del 06 a las 18 UTC al 07 a las 03 UTC
Viento 12 kt del sur-suroeste
Visibilidad 10 km o más
sin nubes por debajo de 1500 m y sin presencia de cumulonimbus.
Evolucionando progresivamente
del 06 a las 18 UTC al 06 a las 21 UTC
Viento 5 kt del sur

TAF: EDAC 061700Z 0618/0703 21012KT CAVOK BECMG 0618/0621 18005KT

Observaciones y pronósticos meteorológicos de más de 4000 aeropuertos (mensajes METAR y TAF).

Los puntos amarillos y rojos representan las estaciones disponibles.

Ponga el ratón en el punto deseado para ver el nombre de la estación.

Haga clic para ver las observaciones y los pronósticos meteorológicos.

Para cambiar el mapa : haga clic en los botones verdes con una cruz de color negro para hacer un zoom, en el botón verde con un guión para alejar o en las flechas verdes para mapas adyacentes.


METAR-TAF: